createdAt,value
2023-05-11T00:05:38.126Z,13.3
2023-05-11T00:07:43.889Z,13.3
2023-05-11T00:09:49.615Z,13.3
2023-05-11T00:16:08.549Z,13.4
2023-05-11T00:18:14.249Z,13.4
2023-05-11T00:20:22.975Z,13.4
2023-05-11T00:22:28.746Z,13.5
2023-05-11T00:26:40.275Z,13.5
2023-05-11T00:28:46.055Z,13.5
2023-05-11T00:32:57.583Z,13.5
2023-05-11T00:37:12.087Z,13.4
2023-05-11T00:41:23.587Z,13.4
2023-05-11T00:43:29.356Z,13.4
2023-05-11T00:45:35.100Z,13.4
2023-05-11T00:47:40.915Z,13.4
2023-05-11T00:49:49.631Z,13.4
2023-05-11T00:51:55.359Z,13.4
2023-05-11T00:54:01.150Z,13.4
2023-05-11T00:55:05.522Z,13.4
2023-05-11T01:18:14.900Z,13.2
2023-05-11T01:20:20.755Z,13.1
2023-05-11T01:22:26.504Z,13.2
2023-05-11T01:24:32.164Z,13.2
2023-05-11T01:32:58.281Z,13
2023-05-11T01:35:04.002Z,13
2023-05-11T01:37:09.737Z,13
2023-05-11T01:39:15.523Z,13
2023-05-11T01:43:27.051Z,12.9
2023-05-11T01:47:41.546Z,12.9
2023-05-11T01:49:47.311Z,12.9
2023-05-11T01:51:53.049Z,13
2023-05-11T01:52:57.429Z,12.9
2023-05-11T01:57:08.912Z,12.9
2023-05-11T01:59:14.705Z,12.9
2023-05-11T02:01:23.481Z,12.9
2023-05-11T02:03:29.237Z,12.9
2023-05-11T02:05:35.005Z,12.9
2023-05-11T02:07:40.741Z,12.9
2023-05-11T02:09:46.484Z,12.9
2023-05-11T02:11:52.252Z,13
2023-05-11T02:22:24.025Z,12.8
2023-05-11T02:28:41.984Z,12.9
2023-05-11T02:30:50.727Z,12.8
2023-05-11T02:32:56.652Z,12.8
2023-05-11T02:35:02.238Z,12.9
2023-05-11T02:37:07.976Z,12.9
2023-05-11T02:39:13.742Z,12.9
2023-05-11T02:41:19.490Z,12.9
2023-05-11T02:49:45.548Z,12.9
2023-05-11T02:52:10.876Z,12.9
2023-05-11T02:54:16.628Z,12.9
2023-05-11T02:56:22.378Z,12.9
2023-05-11T02:58:31.131Z,12.9
2023-05-11T03:00:36.943Z,12.8
2023-05-11T03:02:42.664Z,12.9
2023-05-11T03:04:48.377Z,12.8
2023-05-11T03:06:54.177Z,12.8
2023-05-11T03:11:05.707Z,12.8
2023-05-11T03:17:25.995Z,12.8
2023-05-11T03:19:31.735Z,12.8
2023-05-11T03:21:37.502Z,12.7
2023-05-11T03:23:43.274Z,12.7
2023-05-11T03:25:49.005Z,12.7
2023-05-11T03:27:58.484Z,12.7
2023-05-11T03:32:09.912Z,12.7
2023-05-11T03:36:21.381Z,12.7
2023-05-11T03:38:27.167Z,12.7
2023-05-11T03:46:53.170Z,12.8
2023-05-11T03:47:57.602Z,12.8
2023-05-11T03:50:03.352Z,12.8
2023-05-11T03:52:09.038Z,12.8
2023-05-11T03:56:23.572Z,12.8
2023-05-11T03:58:29.324Z,12.8
2023-05-11T04:00:35.099Z,12.8
2023-05-11T04:02:40.939Z,12.9
2023-05-11T04:04:46.628Z,12.8
2023-05-11T04:11:06.842Z,12.9
2023-05-11T04:13:12.610Z,12.9
2023-05-11T04:17:24.124Z,12.9
2023-05-11T04:23:41.389Z,12.8
2023-05-11T04:25:50.120Z,12.8
2023-05-11T04:27:55.876Z,12.8
2023-05-11T04:30:01.664Z,12.8
2023-05-11T04:32:07.403Z,12.9
2023-05-11T04:34:13.160Z,12.9
2023-05-11T04:36:18.928Z,12.8
2023-05-11T04:38:24.670Z,12.8
2023-05-11T04:40:35.007Z,12.8
2023-05-11T04:42:39.174Z,12.8
2023-05-11T04:44:44.916Z,12.8
2023-05-11T04:45:49.290Z,12.9
2023-05-11T04:47:55.048Z,12.9
2023-05-11T04:52:06.552Z,12.9
2023-05-11T04:54:15.315Z,12.9
2023-05-11T05:00:32.581Z,12.9
2023-05-11T05:02:38.346Z,12.9
2023-05-11T05:04:44.077Z,12.9
2023-05-11T05:06:49.842Z,13
2023-05-11T05:08:58.582Z,13
2023-05-11T05:11:04.346Z,12.9
2023-05-11T05:21:33.147Z,13
2023-05-11T05:23:41.864Z,13
2023-05-11T05:25:47.631Z,13.1
2023-05-11T05:27:53.385Z,13.1
2023-05-11T05:29:59.165Z,13.1
2023-05-11T05:34:10.670Z,13.1
2023-05-11T05:36:16.426Z,13.1
2023-05-11T05:38:25.182Z,13
2023-05-11T05:40:30.933Z,13
2023-05-11T05:42:36.689Z,13.1
2023-05-11T05:43:41.074Z,13.1
2023-05-11T05:47:52.656Z,13.1
2023-05-11T05:49:58.344Z,13.2
2023-05-11T05:52:07.100Z,13.4
2023-05-11T05:54:12.862Z,13.4
2023-05-11T05:56:18.629Z,13.4
2023-05-11T05:58:24.396Z,13.5
2023-05-11T06:00:30.163Z,13.5
2023-05-11T06:02:35.973Z,13.6
2023-05-11T06:04:41.745Z,13.7
2023-05-11T06:06:50.443Z,13.8
2023-05-11T06:11:01.945Z,13.9
2023-05-11T06:17:20.792Z,13.9
2023-05-11T06:19:26.597Z,13.8
2023-05-11T06:23:41.076Z,13.8
2023-05-11T06:25:46.859Z,13.7
2023-05-11T06:27:52.578Z,13.9
2023-05-11T06:29:59.239Z,13.9
2023-05-11T06:32:05.047Z,13.9
2023-05-11T06:34:10.778Z,13.8
2023-05-11T06:38:25.303Z,13.9
2023-05-11T06:40:31.069Z,13.9
2023-05-11T06:45:08.328Z,14.1
2023-05-11T06:47:13.924Z,14.4
2023-05-11T06:49:22.678Z,14.1
2023-05-11T06:51:28.456Z,14.1
2023-05-11T06:53:34.239Z,14.3
2023-05-11T06:55:39.988Z,14.2
2023-05-11T06:59:51.537Z,14.4
2023-05-11T07:01:57.345Z,14.5
2023-05-11T07:12:29.180Z,14.3
2023-05-11T07:14:34.943Z,14.4
2023-05-11T07:16:40.761Z,14.4
2023-05-11T07:18:49.530Z,14.4
2023-05-11T07:20:55.232Z,14.5
2023-05-11T07:23:01.533Z,14.5
2023-05-11T07:27:13.062Z,14.8
2023-05-11T07:31:24.668Z,15.1
2023-05-11T07:38:49.281Z,15.3
2023-05-11T07:40:55.062Z,15
2023-05-11T07:43:00.846Z,15
2023-05-11T07:45:06.640Z,15
2023-05-11T07:47:15.394Z,15
2023-05-11T07:51:26.944Z,15.1
2023-05-11T07:53:32.703Z,15.1
2023-05-11T07:55:38.505Z,15.2
2023-05-11T07:57:44.281Z,15.1
2023-05-11T07:59:50.067Z,15.2
2023-05-11T08:04:04.589Z,15.6
2023-05-11T08:06:10.449Z,15.4
2023-05-11T08:08:16.161Z,15.4
2023-05-11T08:22:59.609Z,15.3
2023-05-11T08:25:05.361Z,15.2
2023-05-11T08:27:11.154Z,15.3
2023-05-11T08:31:25.815Z,15.6
2023-05-11T08:33:38.188Z,15.7
2023-05-11T08:35:37.276Z,15.7
2023-05-11T08:36:41.646Z,15.7
2023-05-11T08:38:47.407Z,15.8
2023-05-11T08:40:53.191Z,16
2023-05-11T08:45:07.692Z,16
2023-05-11T08:51:25.045Z,16.1
2023-05-11T08:53:30.837Z,16.6
2023-05-11T08:55:36.599Z,17
2023-05-11T08:57:42.400Z,16.9
2023-05-11T08:59:51.140Z,16.9
2023-05-11T09:04:02.705Z,17.7
2023-05-11T09:06:08.440Z,18
2023-05-11T09:10:20.002Z,18.5
2023-05-11T09:25:03.243Z,17.9
2023-05-11T09:27:09.042Z,17.9
2023-05-11T09:29:17.740Z,17.9
2023-05-11T09:31:23.560Z,18
2023-05-11T09:33:29.270Z,17.8
2023-05-11T09:34:33.651Z,17.8
2023-05-11T09:45:05.417Z,18.3
2023-05-11T09:47:11.162Z,18.6
2023-05-11T09:53:28.438Z,18
2023-05-11T09:55:34.219Z,18.1
2023-05-11T09:57:42.983Z,18.4
2023-05-11T09:59:48.702Z,18.2
2023-05-11T10:01:54.581Z,18.2
2023-05-11T10:04:13.305Z,18.4
2023-05-11T10:06:06.011Z,18.2
2023-05-11T10:08:11.788Z,18.5
2023-05-11T10:10:17.551Z,18.5
2023-05-11T10:12:26.282Z,18.2
2023-05-11T10:14:32.061Z,18
2023-05-11T10:16:37.872Z,18
2023-05-11T10:25:00.884Z,18.4
2023-05-11T10:35:58.128Z,18.4
2023-05-11T10:38:03.885Z,18.6
2023-05-11T10:40:12.640Z,18.5
2023-05-11T10:42:18.374Z,18.8
2023-05-11T10:44:24.124Z,19.1
2023-05-11T10:46:30.603Z,19.1
2023-05-11T10:48:35.663Z,19.3
2023-05-11T10:50:43.201Z,19.1
2023-05-11T10:52:47.164Z,19
2023-05-11T10:54:55.928Z,19.6
2023-05-11T10:57:01.679Z,19.4
2023-05-11T11:11:44.961Z,19.1
2023-05-11T11:13:50.734Z,19.5
2023-05-11T11:15:56.475Z,19.5
2023-05-11T11:18:02.275Z,19.4
2023-05-11T11:20:07.980Z,18.9
2023-05-11T11:29:38.338Z,19.5
2023-05-11T11:31:44.121Z,19.3
2023-05-11T11:33:49.858Z,19.2
2023-05-11T11:35:55.617Z,19.2
2023-05-11T11:38:04.363Z,19.6
2023-05-11T11:40:15.193Z,19.5
2023-05-11T11:48:33.124Z,19.3
2023-05-11T11:50:38.869Z,19.6
2023-05-11T11:52:47.609Z,19.7
2023-05-11T11:54:53.382Z,19.7
2023-05-11T11:59:04.892Z,20
2023-05-11T12:01:10.678Z,20.3
2023-05-11T12:03:16.534Z,20.2
2023-05-11T12:05:22.488Z,20.2
2023-05-11T12:07:30.890Z,19.9
2023-05-11T12:15:53.897Z,19.7
2023-05-11T12:22:15.726Z,19.7
2023-05-11T12:24:21.474Z,19.6
2023-05-11T12:26:27.250Z,19.7
2023-05-11T12:27:31.593Z,19.9
2023-05-11T12:31:43.213Z,20.6
2023-05-11T12:33:48.861Z,21
2023-05-11T12:35:57.599Z,21.2
2023-05-11T12:38:03.400Z,21
2023-05-11T12:40:09.116Z,20.9
2023-05-11T12:42:14.847Z,20.7
2023-05-11T12:46:26.437Z,20.7
2023-05-11T12:48:32.099Z,20.3
2023-05-11T12:50:40.828Z,20.3
2023-05-11T12:52:46.572Z,20.4
2023-05-11T12:54:52.337Z,20.2
2023-05-11T13:05:24.053Z,19.4
2023-05-11T13:07:29.799Z,19.3
2023-05-11T13:09:35.546Z,19.1
2023-05-11T13:22:13.054Z,19.5
2023-05-11T13:24:18.824Z,19.8
2023-05-11T13:25:23.176Z,20.1
2023-05-11T13:27:28.924Z,20
2023-05-11T13:29:34.706Z,19.4
2023-05-11T13:31:40.451Z,19.4
2023-05-11T13:33:49.178Z,19.5
2023-05-11T13:35:54.950Z,19.5
2023-05-11T13:38:00.696Z,18.9
2023-05-11T13:42:12.206Z,18.3
2023-05-11T13:50:38.235Z,18.2
2023-05-11T14:03:15.886Z,18.2
2023-05-11T14:05:21.786Z,18.3
2023-05-11T14:07:39.084Z,18.4
2023-05-11T14:09:33.120Z,18.4
2023-05-11T14:11:39.581Z,18.5
2023-05-11T14:15:50.460Z,18.4
2023-05-11T14:17:59.310Z,17.9
2023-05-11T14:22:10.732Z,17.8
2023-05-11T14:24:41.966Z,17.9
2023-05-11T14:26:47.716Z,17.9
2023-05-11T14:28:53.533Z,18.1
2023-05-11T14:37:19.620Z,18.1
2023-05-11T14:41:31.152Z,18
2023-05-11T14:43:36.913Z,17.8
2023-05-11T14:47:51.490Z,17.8
2023-05-11T14:49:57.251Z,17.8
2023-05-11T14:52:03.028Z,17.6
2023-05-11T14:54:08.811Z,17.4
2023-05-11T14:58:20.314Z,17.2
2023-05-11T15:00:29.067Z,16.9
2023-05-11T15:04:40.671Z,16.6
2023-05-11T15:06:46.440Z,16.6
2023-05-11T15:08:52.203Z,16.4
2023-05-11T15:10:58.007Z,16.4
2023-05-11T15:13:03.737Z,16.2
2023-05-11T15:15:12.484Z,16.2
2023-05-11T15:17:18.242Z,16.2
2023-05-11T15:20:28.408Z,16.6
2023-05-11T15:26:45.741Z,16.3
2023-05-11T15:28:54.482Z,16.2
2023-05-11T15:31:00.253Z,16.2
2023-05-11T15:33:06.077Z,16.2
2023-05-11T15:35:11.824Z,16.2
2023-05-11T15:37:17.644Z,16.2
2023-05-11T15:39:23.416Z,16.1
2023-05-11T15:41:29.233Z,16.1
2023-05-11T15:43:37.930Z,16
2023-05-11T15:45:43.747Z,15.9
2023-05-11T15:58:21.351Z,16.3
2023-05-11T16:00:27.136Z,16.4
2023-05-11T16:04:38.695Z,16.5
2023-05-11T16:06:44.472Z,16.4
2023-05-11T16:08:50.229Z,16.2
2023-05-11T16:10:56.014Z,16.1
2023-05-11T16:13:04.789Z,16.2
2023-05-11T16:17:16.411Z,16.1
2023-05-11T16:18:20.801Z,16.2
2023-05-11T16:24:38.049Z,16.2
2023-05-11T16:26:46.809Z,16.1
2023-05-11T16:28:52.575Z,16
2023-05-11T16:30:59.457Z,16
2023-05-11T16:35:09.903Z,16.1
2023-05-11T16:37:15.683Z,16.3
2023-05-11T16:39:21.485Z,16.1
2023-05-11T16:41:30.258Z,16.2
2023-05-11T16:43:36.006Z,16.2
2023-05-11T16:45:41.830Z,16.4
2023-05-11T16:47:47.653Z,16.4
2023-05-11T16:49:53.394Z,16.2
2023-05-11T16:54:04.923Z,16.5
2023-05-11T16:56:13.702Z,16.4
2023-05-11T17:00:25.234Z,16.2
2023-05-11T17:02:31.026Z,16.3
2023-05-11T17:04:36.807Z,16.3
2023-05-11T17:06:42.598Z,16.3
2023-05-11T17:08:48.364Z,16.3
2023-05-11T17:10:57.138Z,16.3
2023-05-11T17:13:02.903Z,16.1
2023-05-11T17:15:08.715Z,16
2023-05-11T17:20:24.617Z,16
2023-05-11T17:22:30.416Z,16.1
2023-05-11T17:24:39.204Z,16
2023-05-11T17:26:48.397Z,16
2023-05-11T17:30:56.648Z,16.1
2023-05-11T17:33:02.601Z,16.2
2023-05-11T17:37:27.854Z,16.2
2023-05-11T17:39:22.621Z,16.2
2023-05-11T17:41:28.388Z,16.1
2023-05-11T17:45:39.995Z,16.2
2023-05-11T17:47:45.826Z,16.1
2023-05-11T17:49:51.528Z,16
2023-05-11T17:54:06.020Z,16
2023-05-11T17:56:11.937Z,16
2023-05-11T18:02:29.299Z,15.9
2023-05-11T18:06:40.693Z,15.9
2023-05-11T18:08:49.493Z,16
2023-05-11T18:10:55.266Z,16
2023-05-11T18:15:32.305Z,15.9
2023-05-11T18:17:38.067Z,15.8
2023-05-11T18:21:54.167Z,15.7
2023-05-11T18:23:59.924Z,15.7
2023-05-11T18:26:05.729Z,15.7
2023-05-11T18:30:17.462Z,15.7
2023-05-11T18:32:23.065Z,15.7
2023-05-11T18:34:28.806Z,15.6
2023-05-11T18:36:37.581Z,15.6
2023-05-11T18:38:43.352Z,15.6
2023-05-11T18:40:49.152Z,15.7
2023-05-11T18:42:54.922Z,15.7
2023-05-11T18:45:00.712Z,15.7
2023-05-11T18:47:06.497Z,15.6
2023-05-11T18:49:12.242Z,15.6
2023-05-11T18:51:20.955Z,15.6
2023-05-11T18:53:26.737Z,15.6
2023-05-11T18:55:44.882Z,15.5
2023-05-11T18:57:38.308Z,15.5
2023-05-11T18:59:44.110Z,15.5
2023-05-11T19:01:49.983Z,15.4
2023-05-11T19:03:55.634Z,15.4
2023-05-11T19:06:04.418Z,15.5
2023-05-11T19:10:15.972Z,15.5
2023-05-11T19:19:46.424Z,14.3
2023-05-11T19:21:52.197Z,14.3
2023-05-11T19:26:03.755Z,14.3
2023-05-11T19:28:09.528Z,14.3
2023-05-11T19:30:15.295Z,14.2
2023-05-11T19:32:21.235Z,14.2
2023-05-11T19:40:47.179Z,14.2
2023-05-11T19:42:52.959Z,14.2
2023-05-11T19:44:58.744Z,14.3
2023-05-11T19:47:04.491Z,14.2
2023-05-11T19:49:13.263Z,14.2
2023-05-11T19:51:19.018Z,14.2
2023-05-11T19:53:24.785Z,14.2
2023-05-11T19:55:30.568Z,14.2
2023-05-11T19:57:36.348Z,14.1
2023-05-11T19:59:42.116Z,14.1
2023-05-11T20:01:48.001Z,14
2023-05-11T20:09:12.529Z,14
2023-05-11T20:11:18.322Z,14
2023-05-11T20:17:38.626Z,13.9
2023-05-11T20:23:55.899Z,13.8
2023-05-11T20:26:01.651Z,13.8
2023-05-11T20:32:21.916Z,13.7
2023-05-11T20:34:27.734Z,13.7
2023-05-11T20:36:33.468Z,13.7
2023-05-11T20:38:39.228Z,13.6
2023-05-11T20:40:45.033Z,13.6
2023-05-11T20:44:56.546Z,13.5
2023-05-11T20:49:11.040Z,13.4
2023-05-11T20:51:16.821Z,13.5
2023-05-11T20:53:22.574Z,13.4
2023-05-11T20:55:28.365Z,13.4
2023-05-11T20:57:34.120Z,13.4
2023-05-11T21:03:54.400Z,13.3
2023-05-11T21:07:04.558Z,13.3
2023-05-11T21:11:16.083Z,13.3
2023-05-11T21:13:21.838Z,13.2
2023-05-11T21:15:30.601Z,13.2
2023-05-11T21:17:36.343Z,13.1
2023-05-11T21:19:42.093Z,13.2
2023-05-11T21:21:47.845Z,13.2
2023-05-11T21:25:59.377Z,13.2
2023-05-11T21:28:05.155Z,13.1
2023-05-11T21:32:19.661Z,13.2
2023-05-11T21:36:31.157Z,13.1
2023-05-11T21:38:36.961Z,13.1
2023-05-11T21:40:42.712Z,13.1
2023-05-11T21:42:48.491Z,13.1
2023-05-11T21:44:57.199Z,13
2023-05-11T21:47:02.983Z,13
2023-05-11T21:49:08.741Z,13
2023-05-11T21:51:14.503Z,12.9
2023-05-11T21:53:20.290Z,12.9
2023-05-11T21:55:26.020Z,12.9
2023-05-11T21:57:31.795Z,12.9
2023-05-11T22:06:23.383Z,12.8
2023-05-11T22:08:29.176Z,12.8
2023-05-11T22:10:34.913Z,12.8
2023-05-11T22:12:43.673Z,12.8
2023-05-11T22:14:49.409Z,12.7
2023-05-11T22:16:55.183Z,12.7
2023-05-11T22:21:06.708Z,12.7
2023-05-11T22:23:14.130Z,12.6
2023-05-11T22:27:26.965Z,12.5
2023-05-11T22:31:38.503Z,12.5
2023-05-11T22:33:44.206Z,12.5
2023-05-11T22:35:49.999Z,12.5
2023-05-11T22:37:55.726Z,12.5
2023-05-11T22:48:27.486Z,12.3
2023-05-11T22:50:33.245Z,12.3
2023-05-11T22:52:39.004Z,12.3
2023-05-11T22:54:44.736Z,12.3
2023-05-11T22:56:53.476Z,12.3
2023-05-11T22:58:59.230Z,12.3
2023-05-11T23:01:04.997Z,12.2
2023-05-11T23:02:09.384Z,12.3
2023-05-11T23:08:26.605Z,12.3
2023-05-11T23:12:41.060Z,12.1
2023-05-11T23:14:46.848Z,12.1
2023-05-11T23:18:58.390Z,12
2023-05-11T23:21:04.095Z,12
2023-05-11T23:23:09.826Z,12
2023-05-11T23:25:18.555Z,12
2023-05-11T23:27:24.291Z,12
2023-05-11T23:31:35.867Z,12
2023-05-11T23:33:41.555Z,11.9
2023-05-11T23:35:47.319Z,11.9
2023-05-11T23:37:53.062Z,11.9
2023-05-11T23:40:01.767Z,11.9
2023-05-11T23:44:13.283Z,11.9
2023-05-11T23:48:24.801Z,11.9
2023-05-11T23:50:30.511Z,11.8
2023-05-11T23:52:36.243Z,11.8
2023-05-11T23:56:50.723Z,11.8
